sensor_id;sensor_type;location;lat;lon;timestamp;P1;durP1;ratioP1;P2;durP2;ratioP2
73938;SDS011;62291;47.554;8.504;2023-06-22T00:00:52;13.68;;;7.13;;
73938;SDS011;62291;47.554;8.504;2023-06-22T00:03:19;15.15;;;6.97;;
73938;SDS011;62291;47.554;8.504;2023-06-22T00:05:46;15.02;;;6.97;;
73938;SDS011;62291;47.554;8.504;2023-06-22T00:08:13;15.45;;;6.57;;
73938;SDS011;62291;47.554;8.504;2023-06-22T00:10:39;14.75;;;6.90;;
73938;SDS011;62291;47.554;8.504;2023-06-22T00:13:06;18.77;;;7.57;;
73938;SDS011;62291;47.554;8.504;2023-06-22T00:15:33;16.10;;;7.38;;
73938;SDS011;62291;47.554;8.504;2023-06-22T00:17:59;11.25;;;6.57;;
73938;SDS011;62291;47.554;8.504;2023-06-22T00:20:25;15.57;;;7.40;;
73938;SDS011;62291;47.554;8.504;2023-06-22T00:22:55;17.45;;;7.75;;
73938;SDS011;62291;47.554;8.504;2023-06-22T00:25:22;13.95;;;7.03;;
73938;SDS011;62291;47.554;8.504;2023-06-22T00:27:48;17.25;;;7.10;;
73938;SDS011;62291;47.554;8.504;2023-06-22T00:30:18;13.40;;;7.15;;
73938;SDS011;62291;47.554;8.504;2023-06-22T00:32:44;13.63;;;7.28;;
73938;SDS011;62291;47.554;8.504;2023-06-22T00:35:13;15.38;;;7.75;;
73938;SDS011;62291;47.554;8.504;2023-06-22T00:37:39;14.95;;;7.35;;
73938;SDS011;62291;47.554;8.504;2023-06-22T00:40:08;21.15;;;7.50;;
73938;SDS011;62291;47.554;8.504;2023-06-22T00:42:39;15.82;;;8.48;;
73938;SDS011;62291;47.554;8.504;2023-06-22T00:45:06;13.32;;;7.97;;
73938;SDS011;62291;47.554;8.504;2023-06-22T00:47:32;18.23;;;7.60;;
73938;SDS011;62291;47.554;8.504;2023-06-22T00:49:59;17.33;;;8.20;;
73938;SDS011;62291;47.554;8.504;2023-06-22T00:52:25;17.25;;;7.70;;
73938;SDS011;62291;47.554;8.504;2023-06-22T00:54:54;19.30;;;8.48;;
73938;SDS011;62291;47.554;8.504;2023-06-22T00:57:21;16.02;;;9.05;;
73938;SDS011;62291;47.554;8.504;2023-06-22T00:59:50;16.58;;;9.82;;
73938;SDS011;62291;47.554;8.504;2023-06-22T01:02:16;22.63;;;9.70;;
73938;SDS011;62291;47.554;8.504;2023-06-22T01:04:42;17.95;;;10.30;;
73938;SDS011;62291;47.554;8.504;2023-06-22T01:10:06;22.67;;;11.10;;
73938;SDS011;62291;47.554;8.504;2023-06-22T01:12:38;20.88;;;11.20;;
73938;SDS011;62291;47.554;8.504;2023-06-22T01:15:10;18.77;;;11.27;;
73938;SDS011;62291;47.554;8.504;2023-06-22T01:17:40;17.70;;;9.50;;
73938;SDS011;62291;47.554;8.504;2023-06-22T01:20:08;18.92;;;9.63;;
73938;SDS011;62291;47.554;8.504;2023-06-22T01:22:46;15.90;;;9.35;;
73938;SDS011;62291;47.554;8.504;2023-06-22T01:26:04;19.05;;;9.65;;
73938;SDS011;62291;47.554;8.504;2023-06-22T01:31:15;19.70;;;10.20;;
73938;SDS011;62291;47.554;8.504;2023-06-22T01:33:44;17.40;;;10.23;;
73938;SDS011;62291;47.554;8.504;2023-06-22T01:36:13;23.98;;;10.68;;
73938;SDS011;62291;47.554;8.504;2023-06-22T01:38:41;19.85;;;11.35;;
73938;SDS011;62291;47.554;8.504;2023-06-22T01:41:07;22.65;;;10.60;;
73938;SDS011;62291;47.554;8.504;2023-06-22T01:43:33;17.13;;;9.82;;
73938;SDS011;62291;47.554;8.504;2023-06-22T01:46:01;15.25;;;8.60;;
73938;SDS011;62291;47.554;8.504;2023-06-22T01:48:27;19.95;;;9.73;;
73938;SDS011;62291;47.554;8.504;2023-06-22T01:50:54;16.02;;;9.23;;
73938;SDS011;62291;47.554;8.504;2023-06-22T01:53:23;14.38;;;9.40;;
73938;SDS011;62291;47.554;8.504;2023-06-22T01:55:49;19.45;;;10.27;;
73938;SDS011;62291;47.554;8.504;2023-06-22T01:58:15;19.92;;;11.05;;
73938;SDS011;62291;47.554;8.504;2023-06-22T02:00:47;15.48;;;9.45;;
73938;SDS011;62291;47.554;8.504;2023-06-22T02:03:18;15.10;;;9.43;;
73938;SDS011;62291;47.554;8.504;2023-06-22T02:05:49;19.15;;;10.15;;
73938;SDS011;62291;47.554;8.504;2023-06-22T02:08:30;18.38;;;9.73;;
73938;SDS011;62291;47.554;8.504;2023-06-22T02:11:02;16.25;;;9.60;;
73938;SDS011;62291;47.554;8.504;2023-06-22T02:13:28;21.10;;;12.13;;
73938;SDS011;62291;47.554;8.504;2023-06-22T02:15:55;20.00;;;10.30;;
73938;SDS011;62291;47.554;8.504;2023-06-22T02:18:22;17.40;;;9.82;;
73938;SDS011;62291;47.554;8.504;2023-06-22T02:20:47;16.92;;;9.85;;
73938;SDS011;62291;47.554;8.504;2023-06-22T02:23:13;16.85;;;9.40;;
73938;SDS011;62291;47.554;8.504;2023-06-22T02:25:39;15.25;;;9.93;;
73938;SDS011;62291;47.554;8.504;2023-06-22T02:28:04;22.55;;;10.73;;
73938;SDS011;62291;47.554;8.504;2023-06-22T02:30:30;15.63;;;8.95;;
73938;SDS011;62291;47.554;8.504;2023-06-22T02:32:56;14.85;;;9.38;;
73938;SDS011;62291;47.554;8.504;2023-06-22T02:35:25;15.52;;;9.18;;
73938;SDS011;62291;47.554;8.504;2023-06-22T02:37:52;15.95;;;9.95;;
73938;SDS011;62291;47.554;8.504;2023-06-22T02:40:17;20.90;;;10.52;;
73938;SDS011;62291;47.554;8.504;2023-06-22T02:42:43;17.38;;;10.27;;
73938;SDS011;62291;47.554;8.504;2023-06-22T02:45:09;17.70;;;10.65;;
73938;SDS011;62291;47.554;8.504;2023-06-22T02:47:35;17.02;;;11.00;;
73938;SDS011;62291;47.554;8.504;2023-06-22T02:50:00;16.25;;;9.52;;
73938;SDS011;62291;47.554;8.504;2023-06-22T02:52:26;16.23;;;10.32;;
73938;SDS011;62291;47.554;8.504;2023-06-22T02:54:52;25.88;;;12.32;;
73938;SDS011;62291;47.554;8.504;2023-06-22T02:57:17;20.17;;;11.50;;
73938;SDS011;62291;47.554;8.504;2023-06-22T02:59:43;22.20;;;11.85;;
73938;SDS011;62291;47.554;8.504;2023-06-22T03:02:09;20.95;;;11.40;;
73938;SDS011;62291;47.554;8.504;2023-06-22T03:04:35;20.17;;;11.55;;
73938;SDS011;62291;47.554;8.504;2023-06-22T03:07:01;19.48;;;11.52;;
73938;SDS011;62291;47.554;8.504;2023-06-22T03:09:27;24.95;;;12.80;;
73938;SDS011;62291;47.554;8.504;2023-06-22T03:11:54;17.92;;;10.98;;
73938;SDS011;62291;47.554;8.504;2023-06-22T03:14:20;19.08;;;10.15;;
73938;SDS011;62291;47.554;8.504;2023-06-22T03:16:45;24.58;;;11.57;;
73938;SDS011;62291;47.554;8.504;2023-06-22T03:19:11;14.60;;;9.10;;
73938;SDS011;62291;47.554;8.504;2023-06-22T03:21:37;16.15;;;10.88;;
73938;SDS011;62291;47.554;8.504;2023-06-22T03:24:04;24.38;;;12.73;;
73938;SDS011;62291;47.554;8.504;2023-06-22T03:26:30;20.38;;;10.10;;
73938;SDS011;62291;47.554;8.504;2023-06-22T03:28:56;19.00;;;10.25;;
73938;SDS011;62291;47.554;8.504;2023-06-22T03:31:22;15.82;;;10.18;;
73938;SDS011;62291;47.554;8.504;2023-06-22T03:33:48;24.55;;;12.50;;
73938;SDS011;62291;47.554;8.504;2023-06-22T03:36:14;32.55;;;15.68;;
73938;SDS011;62291;47.554;8.504;2023-06-22T03:38:44;17.95;;;11.32;;
73938;SDS011;62291;47.554;8.504;2023-06-22T03:41:11;19.50;;;12.27;;
73938;SDS011;62291;47.554;8.504;2023-06-22T03:43:36;14.77;;;11.07;;
73938;SDS011;62291;47.554;8.504;2023-06-22T03:46:02;18.80;;;11.10;;
73938;SDS011;62291;47.554;8.504;2023-06-22T03:48:28;21.67;;;12.70;;
73938;SDS011;62291;47.554;8.504;2023-06-22T03:50:53;20.52;;;12.43;;
73938;SDS011;62291;47.554;8.504;2023-06-22T03:53:19;21.42;;;12.68;;
73938;SDS011;62291;47.554;8.504;2023-06-22T03:55:49;17.90;;;12.48;;
73938;SDS011;62291;47.554;8.504;2023-06-22T03:58:16;24.23;;;11.80;;
73938;SDS011;62291;47.554;8.504;2023-06-22T04:00:43;21.95;;;11.38;;
73938;SDS011;62291;47.554;8.504;2023-06-22T04:03:10;17.58;;;10.80;;
73938;SDS011;62291;47.554;8.504;2023-06-22T04:05:37;30.95;;;13.73;;
73938;SDS011;62291;47.554;8.504;2023-06-22T04:08:04;23.05;;;11.50;;
73938;SDS011;62291;47.554;8.504;2023-06-22T04:10:30;17.58;;;11.13;;
73938;SDS011;62291;47.554;8.504;2023-06-22T04:12:56;23.13;;;11.50;;
73938;SDS011;62291;47.554;8.504;2023-06-22T04:15:21;22.92;;;11.88;;
73938;SDS011;62291;47.554;8.504;2023-06-22T04:17:47;21.80;;;12.45;;
73938;SDS011;62291;47.554;8.504;2023-06-22T04:20:13;21.13;;;11.70;;
73938;SDS011;62291;47.554;8.504;2023-06-22T04:22:38;20.13;;;10.48;;
73938;SDS011;62291;47.554;8.504;2023-06-22T04:25:05;26.13;;;12.20;;
73938;SDS011;62291;47.554;8.504;2023-06-22T04:27:32;20.55;;;10.98;;
73938;SDS011;62291;47.554;8.504;2023-06-22T04:30:02;18.08;;;11.80;;
73938;SDS011;62291;47.554;8.504;2023-06-22T04:32:28;17.92;;;11.23;;
73938;SDS011;62291;47.554;8.504;2023-06-22T04:34:54;20.13;;;10.20;;
73938;SDS011;62291;47.554;8.504;2023-06-22T04:37:20;20.95;;;10.57;;
73938;SDS011;62291;47.554;8.504;2023-06-22T04:39:48;20.05;;;9.93;;
73938;SDS011;62291;47.554;8.504;2023-06-22T04:42:15;20.60;;;9.88;;
73938;SDS011;62291;47.554;8.504;2023-06-22T04:44:40;18.17;;;10.27;;
73938;SDS011;62291;47.554;8.504;2023-06-22T04:47:07;18.63;;;9.65;;
73938;SDS011;62291;47.554;8.504;2023-06-22T04:49:33;16.90;;;9.05;;
73938;SDS011;62291;47.554;8.504;2023-06-22T04:52:02;18.27;;;8.40;;
73938;SDS011;62291;47.554;8.504;2023-06-22T04:54:30;20.40;;;9.50;;
73938;SDS011;62291;47.554;8.504;2023-06-22T04:57:07;21.38;;;8.63;;
73938;SDS011;62291;47.554;8.504;2023-06-22T04:59:36;17.05;;;9.15;;
73938;SDS011;62291;47.554;8.504;2023-06-22T05:02:04;19.00;;;9.10;;
73938;SDS011;62291;47.554;8.504;2023-06-22T05:04:31;19.23;;;7.93;;
73938;SDS011;62291;47.554;8.504;2023-06-22T05:06:57;21.73;;;7.97;;
73938;SDS011;62291;47.554;8.504;2023-06-22T05:09:25;19.02;;;8.02;;
73938;SDS011;62291;47.554;8.504;2023-06-22T05:11:51;22.83;;;9.05;;
73938;SDS011;62291;47.554;8.504;2023-06-22T05:14:17;20.00;;;8.43;;
73938;SDS011;62291;47.554;8.504;2023-06-22T05:16:43;20.63;;;8.32;;
73938;SDS011;62291;47.554;8.504;2023-06-22T05:19:10;14.55;;;8.38;;
73938;SDS011;62291;47.554;8.504;2023-06-22T05:21:35;18.00;;;8.05;;
73938;SDS011;62291;47.554;8.504;2023-06-22T05:24:02;18.67;;;7.47;;
73938;SDS011;62291;47.554;8.504;2023-06-22T05:26:31;13.93;;;7.53;;
73938;SDS011;62291;47.554;8.504;2023-06-22T05:28:58;16.90;;;7.67;;
73938;SDS011;62291;47.554;8.504;2023-06-22T05:31:26;12.65;;;7.43;;
73938;SDS011;62291;47.554;8.504;2023-06-22T05:33:53;13.25;;;7.65;;
73938;SDS011;62291;47.554;8.504;2023-06-22T05:36:19;13.93;;;7.53;;
73938;SDS011;62291;47.554;8.504;2023-06-22T05:38:46;17.15;;;7.95;;
73938;SDS011;62291;47.554;8.504;2023-06-22T05:41:12;11.10;;;7.38;;
73938;SDS011;62291;47.554;8.504;2023-06-22T05:43:39;15.55;;;8.27;;
73938;SDS011;62291;47.554;8.504;2023-06-22T05:46:04;17.38;;;7.78;;
73938;SDS011;62291;47.554;8.504;2023-06-22T05:48:30;12.02;;;7.78;;
73938;SDS011;62291;47.554;8.504;2023-06-22T05:50:56;16.60;;;7.13;;
73938;SDS011;62291;47.554;8.504;2023-06-22T05:53:22;17.25;;;7.72;;
73938;SDS011;62291;47.554;8.504;2023-06-22T05:55:48;14.38;;;7.85;;
73938;SDS011;62291;47.554;8.504;2023-06-22T05:58:14;18.00;;;7.60;;
73938;SDS011;62291;47.554;8.504;2023-06-22T06:00:40;15.30;;;7.20;;
73938;SDS011;62291;47.554;8.504;2023-06-22T06:03:07;13.90;;;7.70;;
73938;SDS011;62291;47.554;8.504;2023-06-22T06:05:33;15.32;;;7.68;;
73938;SDS011;62291;47.554;8.504;2023-06-22T06:08:00;17.83;;;7.78;;
73938;SDS011;62291;47.554;8.504;2023-06-22T06:10:26;23.90;;;7.93;;
73938;SDS011;62291;47.554;8.504;2023-06-22T06:12:54;14.57;;;8.25;;
73938;SDS011;62291;47.554;8.504;2023-06-22T06:15:20;15.52;;;7.68;;
73938;SDS011;62291;47.554;8.504;2023-06-22T06:17:47;13.90;;;6.57;;
73938;SDS011;62291;47.554;8.504;2023-06-22T06:20:14;11.65;;;7.40;;
73938;SDS011;62291;47.554;8.504;2023-06-22T06:22:40;12.38;;;7.35;;
73938;SDS011;62291;47.554;8.504;2023-06-22T06:25:07;13.48;;;7.28;;
73938;SDS011;62291;47.554;8.504;2023-06-22T06:27:33;14.00;;;6.97;;
73938;SDS011;62291;47.554;8.504;2023-06-22T06:29:59;12.05;;;7.38;;
73938;SDS011;62291;47.554;8.504;2023-06-22T06:32:25;14.52;;;7.47;;
73938;SDS011;62291;47.554;8.504;2023-06-22T06:34:50;15.90;;;8.35;;
73938;SDS011;62291;47.554;8.504;2023-06-22T06:37:16;19.08;;;8.32;;
73938;SDS011;62291;47.554;8.504;2023-06-22T06:39:43;17.40;;;7.95;;
73938;SDS011;62291;47.554;8.504;2023-06-22T06:42:09;16.45;;;7.00;;
73938;SDS011;62291;47.554;8.504;2023-06-22T06:44:36;16.50;;;7.70;;
73938;SDS011;62291;47.554;8.504;2023-06-22T06:47:03;16.52;;;8.52;;
73938;SDS011;62291;47.554;8.504;2023-06-22T06:49:29;13.70;;;8.07;;
73938;SDS011;62291;47.554;8.504;2023-06-22T06:51:55;16.17;;;8.02;;
73938;SDS011;62291;47.554;8.504;2023-06-22T06:54:21;16.80;;;8.05;;
73938;SDS011;62291;47.554;8.504;2023-06-22T06:56:47;11.75;;;7.95;;
73938;SDS011;62291;47.554;8.504;2023-06-22T06:59:13;14.90;;;8.10;;
73938;SDS011;62291;47.554;8.504;2023-06-22T07:01:40;13.90;;;7.72;;
73938;SDS011;62291;47.554;8.504;2023-06-22T07:04:06;13.10;;;8.10;;
73938;SDS011;62291;47.554;8.504;2023-06-22T07:06:32;12.93;;;8.38;;
73938;SDS011;62291;47.554;8.504;2023-06-22T07:08:58;14.10;;;8.38;;
73938;SDS011;62291;47.554;8.504;2023-06-22T07:11:24;14.95;;;8.15;;
73938;SDS011;62291;47.554;8.504;2023-06-22T07:13:50;13.48;;;8.05;;
73938;SDS011;62291;47.554;8.504;2023-06-22T07:16:16;17.50;;;8.18;;
73938;SDS011;62291;47.554;8.504;2023-06-22T07:18:42;18.55;;;8.13;;
73938;SDS011;62291;47.554;8.504;2023-06-22T07:21:07;13.70;;;7.80;;
73938;SDS011;62291;47.554;8.504;2023-06-22T07:23:33;17.70;;;8.73;;
73938;SDS011;62291;47.554;8.504;2023-06-22T07:25:59;15.05;;;8.55;;
73938;SDS011;62291;47.554;8.504;2023-06-22T07:28:27;15.82;;;8.90;;
73938;SDS011;62291;47.554;8.504;2023-06-22T07:30:56;15.05;;;8.60;;
73938;SDS011;62291;47.554;8.504;2023-06-22T07:33:22;16.73;;;7.82;;
73938;SDS011;62291;47.554;8.504;2023-06-22T07:35:47;13.68;;;7.72;;
73938;SDS011;62291;47.554;8.504;2023-06-22T07:38:16;18.35;;;7.97;;
73938;SDS011;62291;47.554;8.504;2023-06-22T07:40:41;15.38;;;7.10;;
73938;SDS011;62291;47.554;8.504;2023-06-22T07:43:07;14.45;;;7.55;;
73938;SDS011;62291;47.554;8.504;2023-06-22T07:45:32;18.63;;;7.30;;
73938;SDS011;62291;47.554;8.504;2023-06-22T07:48:00;12.25;;;7.00;;
73938;SDS011;62291;47.554;8.504;2023-06-22T07:50:26;15.82;;;7.68;;
73938;SDS011;62291;47.554;8.504;2023-06-22T07:52:51;14.43;;;7.25;;
73938;SDS011;62291;47.554;8.504;2023-06-22T07:55:18;16.42;;;7.60;;
73938;SDS011;62291;47.554;8.504;2023-06-22T07:57:43;17.10;;;7.68;;
73938;SDS011;62291;47.554;8.504;2023-06-22T08:00:09;16.02;;;7.28;;
73938;SDS011;62291;47.554;8.504;2023-06-22T08:02:40;13.65;;;7.53;;
73938;SDS011;62291;47.554;8.504;2023-06-22T08:05:10;15.45;;;7.30;;
73938;SDS011;62291;47.554;8.504;2023-06-22T08:07:36;15.07;;;6.90;;
73938;SDS011;62291;47.554;8.504;2023-06-22T08:10:03;15.07;;;6.57;;
73938;SDS011;62291;47.554;8.504;2023-06-22T08:12:35;16.33;;;7.47;;
73938;SDS011;62291;47.554;8.504;2023-06-22T08:15:00;13.93;;;7.05;;
73938;SDS011;62291;47.554;8.504;2023-06-22T08:17:26;13.30;;;6.68;;
73938;SDS011;62291;47.554;8.504;2023-06-22T08:19:52;14.02;;;7.35;;
73938;SDS011;62291;47.554;8.504;2023-06-22T08:22:17;16.38;;;6.90;;
73938;SDS011;62291;47.554;8.504;2023-06-22T08:24:44;15.93;;;6.63;;
73938;SDS011;62291;47.554;8.504;2023-06-22T08:27:10;14.32;;;6.43;;
73938;SDS011;62291;47.554;8.504;2023-06-22T08:29:40;16.40;;;6.40;;
73938;SDS011;62291;47.554;8.504;2023-06-22T08:32:08;14.52;;;7.18;;
73938;SDS011;62291;47.554;8.504;2023-06-22T08:34:34;14.95;;;7.82;;
73938;SDS011;62291;47.554;8.504;2023-06-22T08:37:00;14.32;;;7.53;;
73938;SDS011;62291;47.554;8.504;2023-06-22T08:39:26;21.02;;;6.50;;
73938;SDS011;62291;47.554;8.504;2023-06-22T08:41:52;15.05;;;7.32;;
73938;SDS011;62291;47.554;8.504;2023-06-22T08:44:18;13.00;;;7.20;;
73938;SDS011;62291;47.554;8.504;2023-06-22T08:46:44;10.68;;;6.72;;
73938;SDS011;62291;47.554;8.504;2023-06-22T08:49:10;15.10;;;7.15;;
73938;SDS011;62291;47.554;8.504;2023-06-22T08:51:36;18.08;;;7.78;;
73938;SDS011;62291;47.554;8.504;2023-06-22T08:54:01;17.98;;;7.47;;
73938;SDS011;62291;47.554;8.504;2023-06-22T08:56:27;15.15;;;8.13;;
73938;SDS011;62291;47.554;8.504;2023-06-22T08:58:53;18.35;;;7.65;;
73938;SDS011;62291;47.554;8.504;2023-06-22T09:01:18;14.38;;;7.30;;
73938;SDS011;62291;47.554;8.504;2023-06-22T09:03:44;15.27;;;7.60;;
73938;SDS011;62291;47.554;8.504;2023-06-22T09:06:19;18.35;;;8.70;;
73938;SDS011;62291;47.554;8.504;2023-06-22T09:08:45;20.02;;;8.40;;
73938;SDS011;62291;47.554;8.504;2023-06-22T09:11:12;16.98;;;7.65;;
73938;SDS011;62291;47.554;8.504;2023-06-22T09:13:37;15.95;;;8.70;;
73938;SDS011;62291;47.554;8.504;2023-06-22T09:16:03;20.90;;;8.38;;
73938;SDS011;62291;47.554;8.504;2023-06-22T09:18:29;14.32;;;7.53;;
73938;SDS011;62291;47.554;8.504;2023-06-22T09:20:55;14.63;;;7.63;;
73938;SDS011;62291;47.554;8.504;2023-06-22T09:23:21;17.17;;;7.10;;
73938;SDS011;62291;47.554;8.504;2023-06-22T09:25:47;15.93;;;8.32;;
73938;SDS011;62291;47.554;8.504;2023-06-22T09:28:13;14.77;;;8.20;;
73938;SDS011;62291;47.554;8.504;2023-06-22T09:30:39;14.93;;;8.90;;
73938;SDS011;62291;47.554;8.504;2023-06-22T09:33:05;13.60;;;8.40;;
73938;SDS011;62291;47.554;8.504;2023-06-22T09:35:30;13.90;;;8.25;;
73938;SDS011;62291;47.554;8.504;2023-06-22T09:37:56;16.90;;;9.25;;
73938;SDS011;62291;47.554;8.504;2023-06-22T09:40:22;22.45;;;10.05;;
73938;SDS011;62291;47.554;8.504;2023-06-22T09:42:47;21.13;;;9.07;;
73938;SDS011;62291;47.554;8.504;2023-06-22T09:45:13;26.27;;;9.55;;
73938;SDS011;62291;47.554;8.504;2023-06-22T09:47:39;14.80;;;8.55;;
73938;SDS011;62291;47.554;8.504;2023-06-22T09:50:05;15.50;;;8.38;;
73938;SDS011;62291;47.554;8.504;2023-06-22T09:52:31;13.70;;;7.28;;
73938;SDS011;62291;47.554;8.504;2023-06-22T09:54:56;17.40;;;7.65;;
73938;SDS011;62291;47.554;8.504;2023-06-22T09:57:22;19.17;;;7.57;;
73938;SDS011;62291;47.554;8.504;2023-06-22T09:59:48;13.55;;;7.45;;
73938;SDS011;62291;47.554;8.504;2023-06-22T10:02:13;24.65;;;7.90;;
73938;SDS011;62291;47.554;8.504;2023-06-22T10:04:39;18.30;;;7.43;;
73938;SDS011;62291;47.554;8.504;2023-06-22T10:07:05;12.90;;;7.55;;
73938;SDS011;62291;47.554;8.504;2023-06-22T10:09:31;18.58;;;9.15;;
73938;SDS011;62291;47.554;8.504;2023-06-22T10:11:57;17.10;;;8.48;;
73938;SDS011;62291;47.554;8.504;2023-06-22T10:14:22;18.50;;;7.68;;
73938;SDS011;62291;47.554;8.504;2023-06-22T10:16:50;16.88;;;6.75;;
73938;SDS011;62291;47.554;8.504;2023-06-22T10:19:17;15.85;;;7.70;;
73938;SDS011;62291;47.554;8.504;2023-06-22T10:21:42;15.90;;;8.43;;
73938;SDS011;62291;47.554;8.504;2023-06-22T10:24:08;16.30;;;7.18;;
73938;SDS011;62291;47.554;8.504;2023-06-22T10:26:34;14.98;;;7.68;;
73938;SDS011;62291;47.554;8.504;2023-06-22T10:29:01;17.50;;;7.68;;
73938;SDS011;62291;47.554;8.504;2023-06-22T10:31:28;22.73;;;7.50;;
73938;SDS011;62291;47.554;8.504;2023-06-22T10:33:54;15.27;;;7.38;;
73938;SDS011;62291;47.554;8.504;2023-06-22T10:36:23;18.30;;;7.00;;
73938;SDS011;62291;47.554;8.504;2023-06-22T10:38:49;14.57;;;8.00;;
73938;SDS011;62291;47.554;8.504;2023-06-22T10:41:15;15.60;;;7.40;;
73938;SDS011;62291;47.554;8.504;2023-06-22T10:43:41;16.08;;;7.40;;
73938;SDS011;62291;47.554;8.504;2023-06-22T10:46:07;13.85;;;7.00;;
73938;SDS011;62291;47.554;8.504;2023-06-22T10:48:33;16.00;;;7.80;;
73938;SDS011;62291;47.554;8.504;2023-06-22T10:50:59;11.18;;;6.93;;
73938;SDS011;62291;47.554;8.504;2023-06-22T10:53:24;19.27;;;7.40;;
73938;SDS011;62291;47.554;8.504;2023-06-22T10:55:50;17.58;;;7.88;;
73938;SDS011;62291;47.554;8.504;2023-06-22T10:58:20;14.70;;;8.00;;
73938;SDS011;62291;47.554;8.504;2023-06-22T11:00:46;14.20;;;8.48;;
73938;SDS011;62291;47.554;8.504;2023-06-22T11:03:11;18.45;;;7.50;;
73938;SDS011;62291;47.554;8.504;2023-06-22T11:05:39;18.70;;;7.35;;
73938;SDS011;62291;47.554;8.504;2023-06-22T11:08:05;14.07;;;8.02;;
73938;SDS011;62291;47.554;8.504;2023-06-22T11:10:30;15.65;;;7.78;;
73938;SDS011;62291;47.554;8.504;2023-06-22T11:12:56;18.27;;;7.50;;
73938;SDS011;62291;47.554;8.504;2023-06-22T11:15:23;13.90;;;7.18;;
73938;SDS011;62291;47.554;8.504;2023-06-22T11:17:49;15.13;;;6.75;;
73938;SDS011;62291;47.554;8.504;2023-06-22T11:20:15;16.65;;;7.30;;
73938;SDS011;62291;47.554;8.504;2023-06-22T11:22:41;14.60;;;7.28;;
73938;SDS011;62291;47.554;8.504;2023-06-22T11:25:07;17.40;;;7.75;;
73938;SDS011;62291;47.554;8.504;2023-06-22T11:27:33;18.42;;;7.32;;
73938;SDS011;62291;47.554;8.504;2023-06-22T11:29:59;16.30;;;7.53;;
73938;SDS011;62291;47.554;8.504;2023-06-22T11:32:24;18.05;;;7.68;;
73938;SDS011;62291;47.554;8.504;2023-06-22T11:34:50;16.63;;;7.03;;
73938;SDS011;62291;47.554;8.504;2023-06-22T11:37:16;18.67;;;7.32;;
73938;SDS011;62291;47.554;8.504;2023-06-22T11:39:42;19.55;;;7.72;;
73938;SDS011;62291;47.554;8.504;2023-06-22T11:42:08;21.90;;;7.53;;
73938;SDS011;62291;47.554;8.504;2023-06-22T11:44:34;17.27;;;7.15;;
73938;SDS011;62291;47.554;8.504;2023-06-22T11:47:00;12.65;;;7.30;;
73938;SDS011;62291;47.554;8.504;2023-06-22T11:49:28;15.68;;;7.63;;
73938;SDS011;62291;47.554;8.504;2023-06-22T11:51:54;20.67;;;8.18;;
73938;SDS011;62291;47.554;8.504;2023-06-22T11:54:20;17.15;;;7.97;;
73938;SDS011;62291;47.554;8.504;2023-06-22T11:56:46;17.08;;;7.60;;
73938;SDS011;62291;47.554;8.504;2023-06-22T11:59:11;15.65;;;8.18;;
73938;SDS011;62291;47.554;8.504;2023-06-22T12:01:37;24.70;;;8.55;;
73938;SDS011;62291;47.554;8.504;2023-06-22T12:04:03;13.32;;;8.30;;
73938;SDS011;62291;47.554;8.504;2023-06-22T12:06:31;16.20;;;8.70;;
73938;SDS011;62291;47.554;8.504;2023-06-22T12:08:57;14.15;;;8.13;;
73938;SDS011;62291;47.554;8.504;2023-06-22T12:11:23;15.93;;;8.63;;
73938;SDS011;62291;47.554;8.504;2023-06-22T12:13:49;19.05;;;8.77;;
73938;SDS011;62291;47.554;8.504;2023-06-22T12:16:14;14.32;;;7.63;;
73938;SDS011;62291;47.554;8.504;2023-06-22T12:18:40;21.48;;;8.15;;
73938;SDS011;62291;47.554;8.504;2023-06-22T12:21:06;16.85;;;8.30;;
73938;SDS011;62291;47.554;8.504;2023-06-22T12:23:32;13.80;;;8.18;;
73938;SDS011;62291;47.554;8.504;2023-06-22T12:25:57;20.65;;;8.77;;
73938;SDS011;62291;47.554;8.504;2023-06-22T12:28:25;15.43;;;9.20;;
73938;SDS011;62291;47.554;8.504;2023-06-22T12:30:50;18.02;;;8.40;;
73938;SDS011;62291;47.554;8.504;2023-06-22T12:33:16;18.98;;;8.77;;
73938;SDS011;62291;47.554;8.504;2023-06-22T12:35:42;13.45;;;8.90;;
73938;SDS011;62291;47.554;8.504;2023-06-22T12:38:10;15.10;;;8.35;;
73938;SDS011;62291;47.554;8.504;2023-06-22T12:40:36;20.90;;;8.32;;
73938;SDS011;62291;47.554;8.504;2023-06-22T12:43:01;17.85;;;8.80;;
73938;SDS011;62291;47.554;8.504;2023-06-22T12:45:27;14.43;;;8.45;;
73938;SDS011;62291;47.554;8.504;2023-06-22T12:47:56;20.42;;;9.02;;
73938;SDS011;62291;47.554;8.504;2023-06-22T12:50:22;19.80;;;8.65;;
73938;SDS011;62291;47.554;8.504;2023-06-22T12:52:48;14.02;;;7.90;;
73938;SDS011;62291;47.554;8.504;2023-06-22T12:55:13;15.98;;;8.23;;
73938;SDS011;62291;47.554;8.504;2023-06-22T12:57:39;16.02;;;8.00;;
73938;SDS011;62291;47.554;8.504;2023-06-22T13:00:05;16.33;;;9.02;;
73938;SDS011;62291;47.554;8.504;2023-06-22T13:02:33;19.30;;;9.40;;
73938;SDS011;62291;47.554;8.504;2023-06-22T13:04:58;20.05;;;8.77;;
73938;SDS011;62291;47.554;8.504;2023-06-22T13:07:24;12.35;;;8.30;;
73938;SDS011;62291;47.554;8.504;2023-06-22T13:09:50;15.80;;;8.57;;
73938;SDS011;62291;47.554;8.504;2023-06-22T13:12:22;18.73;;;7.55;;
73938;SDS011;62291;47.554;8.504;2023-06-22T13:14:48;15.05;;;7.60;;
73938;SDS011;62291;47.554;8.504;2023-06-22T13:17:14;14.38;;;6.97;;
73938;SDS011;62291;47.554;8.504;2023-06-22T13:19:39;20.10;;;8.13;;
73938;SDS011;62291;47.554;8.504;2023-06-22T13:22:09;15.63;;;8.05;;
73938;SDS011;62291;47.554;8.504;2023-06-22T13:24:50;17.40;;;7.55;;
73938;SDS011;62291;47.554;8.504;2023-06-22T13:27:16;16.40;;;7.18;;
73938;SDS011;62291;47.554;8.504;2023-06-22T13:29:41;16.65;;;7.20;;
73938;SDS011;62291;47.554;8.504;2023-06-22T13:32:07;16.00;;;7.47;;
73938;SDS011;62291;47.554;8.504;2023-06-22T13:34:33;16.35;;;7.90;;
73938;SDS011;62291;47.554;8.504;2023-06-22T13:36:58;19.38;;;7.07;;
73938;SDS011;62291;47.554;8.504;2023-06-22T13:39:24;16.35;;;7.22;;
73938;SDS011;62291;47.554;8.504;2023-06-22T13:41:50;18.05;;;7.60;;
73938;SDS011;62291;47.554;8.504;2023-06-22T13:44:15;21.02;;;8.23;;
73938;SDS011;62291;47.554;8.504;2023-06-22T13:46:41;19.52;;;7.32;;
73938;SDS011;62291;47.554;8.504;2023-06-22T13:49:07;16.08;;;6.55;;
73938;SDS011;62291;47.554;8.504;2023-06-22T13:51:33;15.65;;;6.60;;
73938;SDS011;62291;47.554;8.504;2023-06-22T13:53:58;15.23;;;6.70;;
73938;SDS011;62291;47.554;8.504;2023-06-22T13:56:24;14.10;;;6.22;;
73938;SDS011;62291;47.554;8.504;2023-06-22T13:58:50;17.65;;;6.18;;
73938;SDS011;62291;47.554;8.504;2023-06-22T14:01:15;14.93;;;5.72;;
73938;SDS011;62291;47.554;8.504;2023-06-22T14:03:41;19.35;;;6.40;;
73938;SDS011;62291;47.554;8.504;2023-06-22T14:06:06;16.05;;;5.80;;
73938;SDS011;62291;47.554;8.504;2023-06-22T14:08:35;12.32;;;5.70;;
73938;SDS011;62291;47.554;8.504;2023-06-22T14:11:02;13.60;;;5.63;;
73938;SDS011;62291;47.554;8.504;2023-06-22T14:13:28;20.83;;;5.70;;
73938;SDS011;62291;47.554;8.504;2023-06-22T14:15:53;15.60;;;5.80;;
73938;SDS011;62291;47.554;8.504;2023-06-22T14:18:19;18.13;;;6.20;;
73938;SDS011;62291;47.554;8.504;2023-06-22T14:20:47;17.20;;;6.15;;
73938;SDS011;62291;47.554;8.504;2023-06-22T14:23:13;16.58;;;6.05;;
73938;SDS011;62291;47.554;8.504;2023-06-22T14:25:39;19.80;;;7.50;;
73938;SDS011;62291;47.554;8.504;2023-06-22T14:28:05;21.23;;;6.57;;
73938;SDS011;62291;47.554;8.504;2023-06-22T14:30:30;13.32;;;6.68;;
73938;SDS011;62291;47.554;8.504;2023-06-22T14:32:56;16.88;;;6.55;;
73938;SDS011;62291;47.554;8.504;2023-06-22T14:35:22;21.40;;;6.72;;